This is the latest recevied weather packets stored in our database for station/object F1ZRP-13. If no packets are shown the sender has not sent any weather packets the latest 10 day(s).
| Time | Temp. | Humidity | Pressure | Rain* | Wind** | Luminosity | Snow |
|---|---|---|---|---|---|---|---|
| 1777909039 | 16.11° C | 70% | 1014.2 hPa | - | - | - | - |
| 1777908377 | 16.11° C | 70% | 1014.2 hPa | - | - | - | - |
| 1777907174 | 16.11° C | 69% | 1014.3 hPa | - | - | - | - |
| 1777906283 | 16.11° C | 69% | 1014.3 hPa | - | - | - | - |
| 1777905065 | 16.67° C | 70% | 1014.5 hPa | - | - | - | - |
| 1777904033 | 16.67° C | 69% | 1014.6 hPa | - | - | - | - |
| 1777903196 | 16.67° C | 68% | 1014.7 hPa | - | - | - | - |
| 1777902407 | 16.67° C | 66% | 1014.7 hPa | - | - | - | - |
| 1777901668 | 17.22° C | 67% | 1014.8 hPa | - | - | - | - |
| 1777900799 | 16.67° C | 69% | 1014.9 hPa | - | - | - | - |
| 1777900004 | 16.67° C | 72% | 1015 hPa | - | - | - | - |
| 1777898948 | 16.67° C | 73% | 1015 hPa | - | - | - | - |
| 1777897912 | 16.67° C | 72% | 1015.1 hPa | - | - | - | - |
| 1777897127 | 16.67° C | 74% | 1015 hPa | - | - | - | - |
| 1777896279 | 16.11° C | 77% | 1015.2 hPa | - | - | - | - |
| 1777895314 | 15.56° C | 80% | 1015.2 hPa | - | - | - | - |
| 1777894205 | 15° C | 82% | 1015.3 hPa | - | - | - | - |
| 1777893067 | 16.11° C | 75% | 1015.4 hPa | - | - | - | - |
| 1777892212 | 17.22° C | 71% | 1015.4 hPa | - | - | - | - |
| 1777891474 | 16.67° C | 72% | 1015.4 hPa | - | - | - | - |
| 1777890706 | 16.11° C | 73% | 1015.7 hPa | - | - | - | - |
| 1777889901 | 16.67° C | 72% | 1015.7 hPa | - | - | - | - |
| 1777888902 | 16.11° C | 73% | 1015.7 hPa | - | - | - | - |
| 1777887924 | 16.11° C | 71% | 1015.6 hPa | - | - | - | - |
| 1777886770 | 16.67° C | 66% | 1015.5 hPa | - | - | - | - |
* Rain since midnight (hover to see other rain measurements)
** Current wind speed in m/s (hover to see current wind gust speed)